Time;durP1;ratioP1;P1;durP2;ratioP2;P2;SDS_P1;SDS_P2;PMS_P1;PMS_P2;Temp;Humidity;BMP_temperature;BMP_pressure;BME280_temperature;BME280_humidity;BME280_pressure;Samples;Min_cycle;Max_cycle;Signal;HPM_P1;HPM_P2
2024/02/26 00:01:54;;;;;;;0.57;0.40;;;10.00;99.90;;;;;;4248700;27;20042;-57
2024/02/26 00:03:59;;;;;;;0.95;0.40;;;10.00;99.90;;;;;;4266631;27;20051;-57
2024/02/26 00:06:02;;;;;;;0.20;0.17;;;10.10;99.90;;;;;;4266681;27;20050;-58
2024/02/26 00:08:05;;;;;;;2.97;0.63;;;10.10;99.90;;;;;;4266754;27;20133;-58
2024/02/26 00:10:08;;;;;;;0.63;0.30;;;10.10;99.90;;;;;;4266861;27;20039;-57
2024/02/26 00:12:10;;;;;;;0.85;0.50;;;10.10;99.90;;;;;;4266776;27;20054;-61
2024/02/26 00:14:12;;;;;;;0.88;0.47;;;10.20;99.90;;;;;;4267592;27;20099;-57
2024/02/26 00:16:14;;;;;;;4.22;0.40;;;10.20;99.90;;;;;;4267666;27;20449;-65
2024/02/26 00:18:17;;;;;;;0.40;0.40;;;10.20;99.90;;;;;;4267420;27;20050;-58
2024/02/26 00:20:21;;;;;;;0.20;0.20;;;10.10;99.90;;;;;;4267418;27;20126;-62
2024/02/26 00:22:29;;;;;;;0.20;0.20;;;10.10;99.90;;;;;;4267352;27;20038;-58
2024/02/26 00:24:31;;;;;;;0.32;0.32;;;10.10;99.90;;;;;;4266687;27;20051;-57
2024/02/26 00:26:33;;;;;;;0.38;0.35;;;10.10;99.90;;;;;;4266062;27;20054;-57
2024/02/26 00:28:36;;;;;;;0.50;0.25;;;10.10;99.90;;;;;;4266298;27;20455;-57
2024/02/26 00:30:38;;;;;;;24.65;1.48;;;10.10;99.90;;;;;;4266515;27;20047;-58
2024/02/26 00:32:40;;;;;;;3.15;0.75;;;10.10;99.90;;;;;;4266672;27;20054;-56
2024/02/26 00:34:42;;;;;;;0.22;0.20;;;10.10;99.90;;;;;;4266273;27;20457;-57
2024/02/26 00:36:46;;;;;;;0.40;0.40;;;10.10;99.90;;;;;;4247596;27;20043;-57
2024/02/26 00:38:50;;;;;;;0.95;0.35;;;10.10;99.90;;;;;;4265522;27;20046;-57
2024/02/26 00:40:53;;;;;;;0.40;0.40;;;10.10;99.90;;;;;;4265013;27;20050;-57
2024/02/26 00:42:55;;;;;;;1.58;1.20;;;10.10;99.90;;;;;;4266155;27;20503;-58
2024/02/26 00:44:57;;;;;;;0.20;0.20;;;10.20;99.90;;;;;;4266014;27;20109;-57
2024/02/26 00:46:59;;;;;;;0.47;0.30;;;10.20;99.90;;;;;;4265744;27;20449;-57
2024/02/26 00:49:01;;;;;;;0.60;0.50;;;10.20;99.90;;;;;;4265713;27;20046;-57
2024/02/26 00:51:07;;;;;;;4.10;0.88;;;10.30;99.90;;;;;;4265963;27;20495;-57
2024/02/26 00:53:11;;;;;;;0.47;0.47;;;10.30;99.90;;;;;;4265444;27;20125;-57
2024/02/26 00:55:13;;;;;;;1.08;0.30;;;10.30;99.90;;;;;;4265010;27;20575;-57
2024/02/26 00:57:15;;;;;;;0.50;0.30;;;10.30;99.90;;;;;;4265893;27;20419;-57
2024/02/26 00:59:17;;;;;;;1.30;0.52;;;10.30;99.90;;;;;;4265413;27;20091;-57
2024/02/26 01:01:19;;;;;;;1.75;0.30;;;10.30;99.90;;;;;;4265880;27;20043;-57
2024/02/26 01:03:22;;;;;;;1.17;0.70;;;10.40;99.90;;;;;;4265365;27;20053;-57
2024/02/26 01:05:24;;;;;;;0.60;0.35;;;10.40;99.90;;;;;;4265269;27;20046;-59
2024/02/26 01:07:26;;;;;;;1.00;0.52;;;10.50;99.90;;;;;;4265402;27;20038;-57
2024/02/26 01:09:30;;;;;;;1.80;0.52;;;10.50;99.90;;;;;;4266041;27;20117;-59
2024/02/26 01:11:32;;;;;;;0.47;0.20;;;10.50;99.90;;;;;;4266901;27;20039;-58
2024/02/26 01:13:35;;;;;;;0.75;0.65;;;10.50;99.90;;;;;;4248447;27;20074;-57
2024/02/26 01:15:37;;;;;;;0.20;0.20;;;10.50;99.90;;;;;;4265640;27;20454;-57
2024/02/26 01:17:39;;;;;;;0.43;0.20;;;10.50;99.90;;;;;;4265722;27;20502;-57
2024/02/26 01:19:41;;;;;;;1.58;0.60;;;10.60;99.90;;;;;;4265874;27;20043;-60
2024/02/26 01:21:43;;;;;;;0.50;0.50;;;10.60;99.90;;;;;;4266225;27;20043;-58
2024/02/26 01:23:45;;;;;;;0.25;0.25;;;10.60;99.90;;;;;;4265909;27;20077;-63
2024/02/26 01:25:49;;;;;;;0.52;0.30;;;10.60;99.90;;;;;;4265624;27;20096;-60
2024/02/26 01:27:53;;;;;;;0.47;0.28;;;10.60;99.90;;;;;;4265393;27;20062;-57
2024/02/26 01:29:57;;;;;;;0.68;0.25;;;10.50;99.90;;;;;;4265436;27;20133;-57
2024/02/26 01:31:59;;;;;;;0.85;0.20;;;10.50;99.90;;;;;;4265176;27;20077;-57
2024/02/26 01:34:01;;;;;;;1.73;0.43;;;10.50;99.90;;;;;;4265216;27;20408;-57
2024/02/26 01:36:04;;;;;;;3.35;0.38;;;10.50;99.90;;;;;;4265392;27;20043;-59
2024/02/26 01:38:06;;;;;;;0.50;0.50;;;10.50;99.90;;;;;;4264648;27;20052;-58
2024/02/26 01:40:10;;;;;;;0.65;0.65;;;10.60;99.90;;;;;;4265060;27;20476;-58
2024/02/26 01:42:13;;;;;;;0.63;0.30;;;10.70;99.90;;;;;;4265100;27;20043;-57
2024/02/26 01:44:15;;;;;;;1.30;0.68;;;10.70;99.90;;;;;;4264834;27;20039;-57
2024/02/26 01:46:18;;;;;;;0.98;0.40;;;10.60;99.90;;;;;;4264747;27;20449;-57
2024/02/26 01:48:21;;;;;;;0.77;0.25;;;10.60;99.90;;;;;;4264888;27;20471;-57
2024/02/26 01:50:24;;;;;;;3.35;0.77;;;10.60;99.90;;;;;;4265037;27;20054;-57
2024/02/26 01:52:26;;;;;;;0.28;0.28;;;10.70;99.90;;;;;;4264581;27;20497;-57
2024/02/26 01:54:29;;;;;;;1.10;0.93;;;10.60;99.90;;;;;;4264808;27;20050;-57
2024/02/26 01:56:33;;;;;;;0.40;0.30;;;10.60;99.90;;;;;;4264831;27;20502;-57
2024/02/26 01:58:37;;;;;;;0.75;0.30;;;10.70;99.90;;;;;;4264908;27;20042;-57
2024/02/26 02:00:39;;;;;;;1.08;0.52;;;10.70;99.90;;;;;;4264745;27;20038;-56
2024/02/26 02:02:41;;;;;;;0.65;0.47;;;10.70;99.90;;;;;;4264932;27;20073;-57
2024/02/26 02:04:44;;;;;;;1.85;0.50;;;10.70;99.90;;;;;;4264857;27;20511;-58
2024/02/26 02:06:46;;;;;;;1.17;0.85;;;10.70;99.90;;;;;;4264318;27;20046;-57
2024/02/26 02:08:49;;;;;;;1.80;0.50;;;10.60;99.90;;;;;;4264654;27;20466;-57
2024/02/26 02:10:51;;;;;;;0.65;0.50;;;10.60;99.90;;;;;;4264641;27;20099;-58
2024/02/26 02:12:53;;;;;;;2.88;1.05;;;10.70;99.90;;;;;;4264931;27;20112;-59
2024/02/26 02:14:57;;;;;;;0.90;0.63;;;10.70;99.90;;;;;;4264664;27;20042;-57
2024/02/26 02:16:59;;;;;;;1.98;0.73;;;10.70;99.90;;;;;;4264619;27;20389;-63
2024/02/26 02:19:01;;;;;;;4.15;0.88;;;10.70;99.90;;;;;;4246509;28;20054;-57
2024/02/26 02:21:08;;;;;;;1.60;0.30;;;10.70;99.90;;;;;;4264331;27;20047;-57
2024/02/26 02:23:11;;;;;;;1.45;0.60;;;10.70;99.90;;;;;;4264633;27;20057;-58
2024/02/26 02:25:13;;;;;;;0.32;0.32;;;10.70;99.90;;;;;;4264768;27;20047;-58
2024/02/26 02:27:15;;;;;;;0.60;0.20;;;10.70;99.90;;;;;;4264419;27;20046;-57
2024/02/26 02:29:18;;;;;;;0.52;0.52;;;10.70;99.90;;;;;;4264605;27;20042;-58
2024/02/26 02:31:20;;;;;;;0.60;0.60;;;10.70;99.90;;;;;;4264876;27;20091;-60
2024/02/26 02:33:23;;;;;;;0.63;0.63;;;10.80;99.90;;;;;;4264696;27;20050;-57
2024/02/26 02:35:25;;;;;;;0.63;0.40;;;10.80;99.90;;;;;;4264734;27;20126;-57
2024/02/26 02:37:28;;;;;;;0.25;0.20;;;10.80;99.90;;;;;;4263758;27;20070;-58
2024/02/26 02:39:30;;;;;;;1.42;0.85;;;10.70;99.90;;;;;;4264493;27;20065;-58
2024/02/26 02:41:32;;;;;;;0.77;0.22;;;10.70;99.90;;;;;;4264591;27;20039;-57
2024/02/26 02:43:34;;;;;;;2.17;1.15;;;10.70;99.90;;;;;;4264892;27;20066;-61
2024/02/26 02:45:36;;;;;;;2.75;0.73;;;10.70;99.90;;;;;;4264792;27;20064;-57
2024/02/26 02:47:38;;;;;;;0.70;0.60;;;10.70;99.90;;;;;;4264711;27;20042;-58
2024/02/26 02:49:41;;;;;;;11.52;0.85;;;10.70;99.90;;;;;;4264783;27;20054;-57
2024/02/26 02:51:43;;;;;;;0.45;0.30;;;10.80;99.90;;;;;;4264342;27;20053;-58
2024/02/26 02:53:46;;;;;;;2.75;1.15;;;10.80;99.90;;;;;;4264380;27;20484;-57
2024/02/26 02:55:49;;;;;;;1.10;0.80;;;10.70;99.90;;;;;;4264732;27;20051;-57
2024/02/26 02:57:51;;;;;;;3.55;0.93;;;10.70;99.90;;;;;;4264560;27;20050;-59
2024/02/26 02:59:53;;;;;;;2.63;1.00;;;10.80;99.90;;;;;;4264430;27;20063;-57
2024/02/26 03:01:56;;;;;;;0.98;0.40;;;10.80;99.90;;;;;;4264610;27;20047;-60
2024/02/26 03:03:58;;;;;;;0.82;0.43;;;10.70;99.90;;;;;;4267033;27;20047;-58
2024/02/26 03:06:00;;;;;;;2.45;0.52;;;10.70;99.90;;;;;;4267488;27;20122;-57
2024/02/26 03:08:03;;;;;;;0.80;0.80;;;10.70;99.90;;;;;;4267394;27;20133;-57
2024/02/26 03:10:07;;;;;;;1.27;0.75;;;10.70;99.90;;;;;;4267314;27;20133;-57
2024/02/26 03:12:09;;;;;;;0.43;0.20;;;10.70;99.90;;;;;;4267337;27;20042;-57
2024/02/26 03:14:11;;;;;;;0.47;0.40;;;10.70;99.90;;;;;;4267486;27;20043;-57
2024/02/26 03:16:13;;;;;;;1.15;1.00;;;10.70;99.90;;;;;;4267288;27;20046;-60
2024/02/26 03:18:16;;;;;;;3.63;1.50;;;10.70;99.90;;;;;;4267111;27;20039;-58
2024/02/26 03:20:19;;;;;;;2.42;0.57;;;10.70;99.90;;;;;;4266870;27;20039;-57
2024/02/26 03:22:21;;;;;;;2.75;1.23;;;10.70;99.90;;;;;;4248773;27;20066;-58
2024/02/26 03:24:23;;;;;;;1.35;0.35;;;10.70;99.90;;;;;;4267174;27;20066;-57
2024/02/26 03:26:27;;;;;;;1.00;0.32;;;10.70;99.90;;;;;;4266938;27;20111;-57
2024/02/26 03:28:30;;;;;;;0.55;0.28;;;10.70;99.90;;;;;;4266864;27;20073;-58
2024/02/26 03:30:32;;;;;;;1.40;0.70;;;10.70;99.90;;;;;;4267029;27;20512;-58
2024/02/26 03:32:34;;;;;;;6.00;1.60;;;10.70;99.90;;;;;;4267101;27;20047;-57
2024/02/26 03:34:39;;;;;;;0.60;0.60;;;10.70;99.90;;;;;;4267133;27;20043;-59
2024/02/26 03:36:42;;;;;;;2.63;1.25;;;10.70;99.90;;;;;;4267062;27;20136;-58
2024/02/26 03:38:44;;;;;;;5.00;1.10;;;10.70;99.90;;;;;;4267115;27;20047;-58
2024/02/26 03:40:46;;;;;;;1.27;0.43;;;10.60;99.90;;;;;;4266956;27;20384;-58
2024/02/26 03:42:50;;;;;;;6.53;2.05;;;10.70;99.90;;;;;;4267262;27;20539;-60
2024/02/26 03:44:52;;;;;;;1.13;0.73;;;10.80;99.90;;;;;;4267722;27;20046;-60
2024/02/26 03:46:54;;;;;;;2.00;1.45;;;10.80;99.90;;;;;;4268209;27;20443;-61
2024/02/26 03:48:56;;;;;;;0.68;0.40;;;10.70;99.90;;;;;;4267095;27;20050;-58
2024/02/26 03:50:58;;;;;;;1.23;0.65;;;10.70;99.90;;;;;;4267033;27;20039;-57
2024/02/26 03:53:01;;;;;;;1.38;0.45;;;10.80;99.90;;;;;;4267378;27;20046;-58
2024/02/26 03:55:03;;;;;;;1.00;0.50;;;10.80;99.90;;;;;;4266814;27;20071;-57
2024/02/26 03:57:05;;;;;;;0.85;0.55;;;10.80;99.90;;;;;;4266747;27;20501;-58
2024/02/26 03:59:08;;;;;;;2.30;0.43;;;10.80;99.90;;;;;;4266630;27;20040;-58
2024/02/26 04:01:10;;;;;;;0.77;0.35;;;10.90;99.90;;;;;;4266615;27;20050;-57
2024/02/26 04:03:13;;;;;;;3.90;0.75;;;10.80;99.90;;;;;;4266170;27;20049;-57
2024/02/26 04:05:15;;;;;;;1.15;1.05;;;10.80;99.90;;;;;;4266625;27;20050;-57
2024/02/26 04:07:18;;;;;;;1.33;0.75;;;10.70;99.90;;;;;;4266607;27;20092;-57
2024/02/26 04:09:20;;;;;;;1.80;0.90;;;10.70;99.90;;;;;;4266465;27;20043;-57
2024/02/26 04:11:22;;;;;;;5.95;0.75;;;10.70;99.90;;;;;;4266248;27;20145;-59
2024/02/26 04:13:25;;;;;;;1.00;0.38;;;10.70;99.90;;;;;;4266507;27;20125;-58
2024/02/26 04:15:30;;;;;;;3.92;0.30;;;10.80;99.90;;;;;;4266430;27;20045;-58
2024/02/26 04:17:32;;;;;;;1.05;0.55;;;10.80;99.90;;;;;;4265881;27;20095;-61
2024/02/26 04:19:34;;;;;;;0.77;0.47;;;10.90;99.90;;;;;;4266294;27;20071;-60
2024/02/26 04:21:37;;;;;;;0.90;0.40;;;10.90;99.90;;;;;;4265794;27;20047;-57
2024/02/26 04:23:38;;;;;;;0.70;0.40;;;10.80;99.90;;;;;;4266073;27;20049;-57
2024/02/26 04:25:40;;;;;;;1.50;0.47;;;10.90;99.90;;;;;;4266036;27;20125;-57
2024/02/26 04:27:42;;;;;;;0.90;0.80;;;10.90;99.90;;;;;;4266165;27;20123;-56
2024/02/26 04:29:44;;;;;;;0.88;0.35;;;10.80;99.90;;;;;;4266062;27;20050;-57
2024/02/26 04:31:48;;;;;;;4.43;1.45;;;10.80;99.90;;;;;;4265712;27;20054;-57
2024/02/26 04:33:50;;;;;;;1.17;0.40;;;10.80;99.90;;;;;;4247780;27;20047;-57
2024/02/26 04:35:53;;;;;;;0.77;0.47;;;10.80;99.90;;;;;;4265846;27;20043;-57
2024/02/26 04:37:55;;;;;;;0.55;0.43;;;10.80;99.90;;;;;;4265620;27;20140;-58
2024/02/26 04:39:59;;;;;;;3.58;1.17;;;10.80;99.90;;;;;;4265911;27;20050;-58
2024/02/26 04:42:03;;;;;;;3.92;1.05;;;10.80;99.90;;;;;;4265646;27;20100;-63
2024/02/26 04:44:05;;;;;;;;;;;10.80;99.90;;;;;;4266644;27;20095;-58
2024/02/26 04:46:08;;;;;;;2.92;1.50;;;10.80;99.90;;;;;;4266263;27;19918;-58
2024/02/26 04:48:12;;;;;;;1.15;0.47;;;10.70;99.90;;;;;;4266184;27;20126;-58
2024/02/26 04:50:14;;;;;;;0.25;0.25;;;10.70;99.90;;;;;;4266122;27;20051;-57
2024/02/26 04:52:16;;;;;;;2.22;0.85;;;10.70;99.90;;;;;;4266070;27;20043;-57
2024/02/26 04:54:18;;;;;;;0.63;0.35;;;10.70;99.90;;;;;;4265550;27;20067;-57
2024/02/26 04:56:21;;;;;;;2.03;0.77;;;10.70;99.90;;;;;;4265316;27;20064;-57
2024/02/26 04:58:23;;;;;;;1.20;0.40;;;10.70;99.90;;;;;;4265584;27;20130;-57
2024/02/26 05:00:25;;;;;;;2.33;0.90;;;10.60;99.90;;;;;;4265515;27;20162;-57
2024/02/26 05:02:30;;;;;;;0.73;0.22;;;10.70;99.90;;;;;;4265126;27;20399;-61
2024/02/26 05:04:33;;;;;;;2.03;0.63;;;10.70;99.90;;;;;;4265475;27;20046;-60
2024/02/26 05:06:36;;;;;;;1.48;0.80;;;10.70;99.90;;;;;;4265567;27;20488;-57
2024/02/26 05:08:39;;;;;;;2.47;0.30;;;10.70;99.90;;;;;;4265407;27;20043;-56
2024/02/26 05:10:42;;;;;;;1.35;0.47;;;10.60;99.90;;;;;;4265676;27;20052;-57
2024/02/26 05:12:45;;;;;;;7.95;2.92;;;10.70;99.90;;;;;;4265426;27;20518;-57
2024/02/26 05:14:47;;;;;;;0.80;0.52;;;10.60;99.90;;;;;;4247010;27;20054;-57
2024/02/26 05:16:49;;;;;;;0.95;0.43;;;10.70;99.90;;;;;;4264919;27;20042;-57
2024/02/26 05:18:51;;;;;;;0.80;0.52;;;10.50;99.90;;;;;;4246971;27;20065;-57
2024/02/26 05:20:55;;;;;;;0.75;0.40;;;10.60;99.90;;;;;;4264991;27;20477;-57
2024/02/26 05:22:58;;;;;;;0.22;0.22;;;10.60;99.90;;;;;;4265003;27;20134;-57
2024/02/26 05:25:01;;;;;;;1.58;0.52;;;10.70;99.90;;;;;;4265134;27;20067;-57
2024/02/26 05:27:03;;;;;;;0.65;0.30;;;10.70;99.90;;;;;;4264544;27;20046;-57
2024/02/26 05:29:05;;;;;;;3.67;0.50;;;10.70;99.90;;;;;;4265340;27;20050;-58
2024/02/26 05:31:07;;;;;;;1.23;0.63;;;10.60;99.90;;;;;;4246473;27;20039;-58
2024/02/26 05:33:09;;;;;;;1.08;0.55;;;10.60;99.90;;;;;;4265144;27;20050;-58
2024/02/26 05:35:14;;;;;;;3.47;1.08;;;10.50;99.90;;;;;;4265072;27;20517;-57
2024/02/26 05:37:18;;;;;;;2.25;1.02;;;10.40;99.90;;;;;;4265130;27;20046;-57
2024/02/26 05:39:20;;;;;;;1.02;0.60;;;10.40;99.90;;;;;;4265127;27;20397;-58
2024/02/26 05:41:26;;;;;;;1.95;0.77;;;10.50;99.90;;;;;;4264879;27;20050;-57
2024/02/26 05:43:28;;;;;;;2.38;1.17;;;10.60;99.90;;;;;;4246729;27;20118;-58
2024/02/26 05:45:30;;;;;;;2.67;1.67;;;10.60;99.90;;;;;;4264974;27;20042;-57
2024/02/26 05:47:33;;;;;;;2.03;0.65;;;10.60;99.90;;;;;;4265122;27;20043;-57
2024/02/26 05:49:35;;;;;;;1.55;0.60;;;10.70;99.90;;;;;;4265200;27;20051;-60
2024/02/26 05:51:37;;;;;;;3.33;1.27;;;10.60;99.90;;;;;;4265906;27;20039;-58
2024/02/26 05:53:41;;;;;;;1.65;0.73;;;10.60;99.90;;;;;;4265363;27;20074;-57
2024/02/26 05:55:43;;;;;;;0.70;0.65;;;10.70;99.90;;;;;;4266074;27;20462;-58
2024/02/26 05:57:45;;;;;;;2.47;1.30;;;10.80;99.90;;;;;;4266692;27;20112;-57
2024/02/26 05:59:47;;;;;;;1.10;0.43;;;10.80;99.90;;;;;;4248016;28;20437;-59
2024/02/26 06:01:49;;;;;;;1.17;0.70;;;10.90;99.90;;;;;;4266541;27;20042;-58
2024/02/26 06:03:51;;;;;;;0.55;0.52;;;10.80;99.90;;;;;;4265916;27;20511;-58
2024/02/26 06:05:53;;;;;;;6.05;1.52;;;10.80;99.90;;;;;;4265442;27;20365;-60
2024/02/26 06:07:56;;;;;;;2.28;0.70;;;10.90;99.90;;;;;;4265107;27;20046;-58
2024/02/26 06:09:59;;;;;;;1.33;0.70;;;10.90;99.90;;;;;;4264837;27;20043;-57
2024/02/26 06:12:01;;;;;;;1.45;0.60;;;10.90;99.90;;;;;;4265240;27;20043;-60
2024/02/26 06:14:03;;;;;;;1.17;0.50;;;10.90;99.90;;;;;;4264702;27;20053;-57
2024/02/26 06:16:07;;;;;;;2.22;0.60;;;10.90;99.90;;;;;;4265065;27;20115;-58
2024/02/26 06:18:10;;;;;;;1.42;0.45;;;10.90;99.90;;;;;;4264787;27;20043;-57
2024/02/26 06:20:12;;;;;;;0.95;0.55;;;11.00;99.90;;;;;;4264970;27;20103;-61
2024/02/26 06:22:15;;;;;;;2.55;0.52;;;10.90;99.90;;;;;;4265543;27;20142;-58
2024/02/26 06:24:17;;;;;;;1.33;0.40;;;10.80;99.90;;;;;;4265895;27;20050;-58
2024/02/26 06:26:21;;;;;;;0.85;0.60;;;10.90;99.90;;;;;;4265154;27;20445;-61
2024/02/26 06:28:23;;;;;;;8.07;2.38;;;10.90;99.90;;;;;;4264530;27;20066;-57
2024/02/26 06:30:25;;;;;;;1.02;0.50;;;10.90;99.90;;;;;;4265091;27;20122;-59
2024/02/26 06:32:29;;;;;;;2.70;0.90;;;10.90;99.90;;;;;;4264369;27;20050;-57
2024/02/26 06:34:31;;;;;;;2.77;0.97;;;10.80;99.90;;;;;;4264765;27;20074;-63
2024/02/26 06:36:34;;;;;;;0.82;0.52;;;10.80;99.90;;;;;;4264603;27;20142;-57
2024/02/26 06:38:36;;;;;;;0.50;0.50;;;10.80;99.90;;;;;;4266417;27;20043;-57
2024/02/26 06:40:42;;;;;;;14.90;0.70;;;10.80;99.90;;;;;;4267789;27;20250;-56
2024/02/26 06:42:45;;;;;;;1.10;0.35;;;10.80;99.90;;;;;;4267792;27;20426;-57
2024/02/26 06:44:51;;;;;;;0.90;0.75;;;10.80;99.90;;;;;;4267816;27;20099;-57
2024/02/26 06:46:53;;;;;;;0.77;0.40;;;10.70;99.90;;;;;;4267824;27;20050;-57
2024/02/26 06:48:55;;;;;;;1.00;0.50;;;10.70;99.90;;;;;;4249963;27;20047;-58
2024/02/26 06:50:57;;;;;;;3.13;0.60;;;10.60;99.90;;;;;;4250689;27;20069;-58
2024/02/26 06:52:59;;;;;;;0.77;0.55;;;10.50;99.90;;;;;;4268236;27;20095;-57
2024/02/26 06:55:02;;;;;;;3.33;1.35;;;10.60;99.90;;;;;;4267851;27;20129;-59
2024/02/26 06:57:04;;;;;;;3.20;1.23;;;10.60;99.90;;;;;;4267426;27;20107;-58
2024/02/26 06:59:08;;;;;;;4.95;1.52;;;10.60;99.90;;;;;;4268125;27;20050;-57
2024/02/26 07:01:11;;;;;;;2.10;1.45;;;10.60;99.90;;;;;;4267972;27;20039;-57
2024/02/26 07:03:13;;;;;;;3.20;1.00;;;10.60;99.90;;;;;;4267587;27;20053;-59
2024/02/26 07:05:16;;;;;;;1.27;0.45;;;10.50;99.90;;;;;;4267847;27;20062;-56
2024/02/26 07:07:18;;;;;;;2.53;0.75;;;10.50;99.90;;;;;;4267658;27;20039;-58
2024/02/26 07:09:21;;;;;;;2.13;1.50;;;10.50;99.90;;;;;;4267925;27;20043;-57
2024/02/26 07:11:23;;;;;;;3.45;1.45;;;10.40;99.90;;;;;;4267134;27;20047;-57
2024/02/26 07:13:25;;;;;;;1.75;1.05;;;10.40;99.90;;;;;;4267733;27;20161;-57
2024/02/26 07:15:29;;;;;;;2.97;1.17;;;10.40;99.90;;;;;;4267839;27;20076;-65
2024/02/26 07:17:31;;;;;;;1.42;0.95;;;10.40;99.90;;;;;;4267528;27;20042;-58
2024/02/26 07:19:33;;;;;;;2.25;1.33;;;10.40;99.90;;;;;;4267444;27;20042;-58
2024/02/26 07:21:36;;;;;;;0.63;0.35;;;10.40;99.90;;;;;;4267170;27;20047;-57
2024/02/26 07:23:38;;;;;;;2.10;1.10;;;10.40;99.90;;;;;;4267400;27;20535;-57
2024/02/26 07:25:40;;;;;;;2.33;0.82;;;10.40;99.90;;;;;;4266984;27;20047;-57
2024/02/26 07:27:42;;;;;;;5.45;1.75;;;10.40;99.90;;;;;;4267170;27;20123;-58
2024/02/26 07:29:44;;;;;;;0.98;0.55;;;10.40;99.90;;;;;;4266918;27;20129;-62
2024/02/26 07:31:48;;;;;;;1.83;1.10;;;10.40;99.90;;;;;;4267258;27;20055;-58
2024/02/26 07:33:51;;;;;;;3.35;1.00;;;10.40;99.90;;;;;;4266878;27;20175;-57
2024/02/26 07:35:53;;;;;;;9.93;2.38;;;10.40;99.90;;;;;;4267065;27;20151;-64
2024/02/26 07:37:56;;;;;;;0.63;0.57;;;10.40;99.90;;;;;;4266869;27;20047;-57
2024/02/26 07:39:58;;;;;;;7.15;2.05;;;10.50;99.90;;;;;;4267104;27;20051;-57
2024/02/26 07:42:00;;;;;;;0.82;0.47;;;10.40;99.90;;;;;;4267259;27;20053;-57
2024/02/26 07:44:02;;;;;;;1.65;0.60;;;10.40;99.90;;;;;;4266947;27;20054;-63
2024/02/26 07:46:04;;;;;;;4.80;1.73;;;10.40;99.90;;;;;;4266681;27;20049;-57
2024/02/26 07:48:08;;;;;;;2.97;0.88;;;10.40;99.90;;;;;;4266874;27;20046;-62
2024/02/26 07:50:15;;;;;;;1.38;0.70;;;10.40;99.90;;;;;;4266295;27;20049;-57
2024/02/26 07:52:17;;;;;;;4.55;1.20;;;10.40;99.90;;;;;;4266577;27;20051;-57
2024/02/26 07:54:19;;;;;;;3.58;0.65;;;10.40;99.90;;;;;;4266755;27;20039;-63
2024/02/26 07:56:21;;;;;;;0.98;0.60;;;10.50;99.90;;;;;;4266247;27;20086;-57
2024/02/26 07:58:23;;;;;;;4.28;1.10;;;10.50;99.90;;;;;;4267086;27;20399;-57
2024/02/26 08:00:25;;;;;;;2.92;0.77;;;10.40;99.90;;;;;;4266689;27;20118;-57
2024/02/26 08:02:28;;;;;;;3.10;1.40;;;10.50;99.90;;;;;;4266660;27;20411;-57
2024/02/26 08:04:31;;;;;;;3.47;1.05;;;10.50;99.90;;;;;;4266925;27;20050;-57
2024/02/26 08:06:33;;;;;;;1.77;0.50;;;10.50;99.90;;;;;;4266935;27;20046;-57
2024/02/26 08:08:39;;;;;;;8.00;1.20;;;10.50;99.90;;;;;;4266695;27;20043;-57
2024/02/26 08:10:41;;;;;;;2.83;1.27;;;10.50;99.90;;;;;;4265913;27;20046;-59
2024/02/26 08:12:45;;;;;;;0.93;0.93;;;10.50;99.90;;;;;;4266594;27;20034;-57
2024/02/26 08:14:47;;;;;;;3.75;0.90;;;10.60;99.90;;;;;;4266411;27;20190;-57
2024/02/26 08:16:49;;;;;;;1.60;0.82;;;10.60;99.90;;;;;;4266487;27;20087;-57
2024/02/26 08:18:51;;;;;;;2.50;1.40;;;10.60;99.90;;;;;;4266208;27;20133;-58
2024/02/26 08:20:54;;;;;;;2.83;0.60;;;10.60;99.90;;;;;;4266330;27;20043;-57
2024/02/26 08:22:57;;;;;;;0.95;0.68;;;10.60;99.90;;;;;;4266113;27;20133;-57
2024/02/26 08:24:59;;;;;;;3.33;0.93;;;10.60;99.90;;;;;;4266036;27;20106;-57
2024/02/26 08:27:02;;;;;;;2.70;1.42;;;10.60;99.90;;;;;;4266112;27;20050;-57
2024/02/26 08:29:04;;;;;;;0.80;0.50;;;10.70;99.90;;;;;;4266262;27;20039;-57
2024/02/26 08:31:08;;;;;;;2.70;1.00;;;10.60;99.90;;;;;;4265968;27;20114;-57
2024/02/26 08:33:10;;;;;;;2.40;0.80;;;10.70;99.90;;;;;;4266092;27;20046;-57
2024/02/26 08:35:12;;;;;;;1.48;0.52;;;10.70;99.90;;;;;;4265754;27;20039;-58
2024/02/26 08:37:16;;;;;;;6.70;1.67;;;10.80;99.90;;;;;;4265967;27;20857;-57
2024/02/26 08:39:18;;;;;;;4.00;1.42;;;10.80;99.90;;;;;;4265645;27;20042;-58
2024/02/26 08:41:20;;;;;;;1.90;0.90;;;10.70;99.90;;;;;;4265713;27;20046;-57
2024/02/26 08:43:23;;;;;;;10.15;1.88;;;10.80;99.90;;;;;;4265859;27;20404;-57
2024/02/26 08:45:27;;;;;;;4.68;2.55;;;10.80;99.90;;;;;;4265751;27;20114;-58
2024/02/26 08:47:32;;;;;;;1.13;0.90;;;10.80;99.90;;;;;;4265963;27;20043;-60
2024/02/26 08:49:34;;;;;;;1.00;0.80;;;10.90;99.90;;;;;;4265967;27;20059;-57
2024/02/26 08:51:41;;;;;;;1.15;0.73;;;10.90;99.90;;;;;;4265775;27;20126;-58
2024/02/26 08:53:44;;;;;;;1.25;0.55;;;11.00;99.90;;;;;;4265460;27;20042;-58
2024/02/26 08:55:46;;;;;;;1.45;0.98;;;10.90;99.90;;;;;;4266209;27;20053;-62
2024/02/26 08:57:48;;;;;;;1.55;0.82;;;10.90;99.90;;;;;;4267051;27;20078;-64
2024/02/26 08:59:51;;;;;;;1.40;0.52;;;10.80;99.90;;;;;;4267140;27;20047;-61
2024/02/26 09:01:53;;;;;;;2.22;1.10;;;10.70;99.90;;;;;;4264872;27;20042;-57
2024/02/26 09:03:56;;;;;;;2.45;0.95;;;10.70;99.90;;;;;;4265413;27;20043;-58
2024/02/26 09:05:58;;;;;;;2.30;0.88;;;10.70;99.90;;;;;;4265295;27;20050;-57
2024/02/26 09:08:02;;;;;;;0.73;0.50;;;10.60;99.90;;;;;;4265172;27;20054;-63
2024/02/26 09:10:10;;;;;;;1.13;0.40;;;10.60;99.90;;;;;;4265487;27;20074;-57
2024/02/26 09:12:12;;;;;;;1.17;0.85;;;10.60;99.90;;;;;;4247081;27;20075;-58
2024/02/26 09:14:14;;;;;;;4.15;1.35;;;10.70;99.90;;;;;;4265515;27;20103;-58
2024/02/26 09:16:16;;;;;;;1.90;0.40;;;10.70;99.90;;;;;;4265360;27;20047;-57
2024/02/26 09:18:18;;;;;;;1.27;0.50;;;10.70;99.90;;;;;;4265285;27;20404;-58
2024/02/26 09:20:21;;;;;;;4.40;1.42;;;10.70;99.90;;;;;;4265410;27;20065;-57
2024/02/26 09:22:23;;;;;;;3.13;0.90;;;10.70;99.90;;;;;;4264963;27;20130;-57
2024/02/26 09:24:26;;;;;;;0.93;0.30;;;10.70;99.90;;;;;;4265186;27;20129;-57
2024/02/26 09:26:30;;;;;;;1.92;0.50;;;10.80;99.90;;;;;;4265297;27;20043;-57
2024/02/26 09:28:37;;;;;;;0.88;0.57;;;10.90;99.90;;;;;;4265288;27;20404;-56
2024/02/26 09:30:39;;;;;;;2.13;0.50;;;11.00;99.90;;;;;;4265220;27;20099;-57
2024/02/26 09:32:41;;;;;;;1.02;0.68;;;11.00;99.90;;;;;;4265023;27;20039;-57
2024/02/26 09:34:43;;;;;;;3.50;1.40;;;11.00;99.90;;;;;;4265035;27;20038;-57
2024/02/26 09:36:45;;;;;;;1.00;0.30;;;11.10;99.90;;;;;;4264731;27;20061;-57
2024/02/26 09:38:48;;;;;;;1.08;0.50;;;11.10;99.90;;;;;;4264853;27;20051;-57
2024/02/26 09:41:03;;;;;;;1.30;0.70;;;11.10;99.90;;;;;;4265019;27;20049;-57
2024/02/26 09:43:13;;;;;;;2.67;1.50;;;11.10;99.90;;;;;;4264808;27;20484;-57
2024/02/26 09:45:19;;;;;;;0.52;0.52;;;11.10;99.90;;;;;;4265347;27;20441;-58
2024/02/26 09:47:27;;;;;;;3.50;0.55;;;11.20;99.90;;;;;;4265498;27;20047;-58
2024/02/26 09:49:29;;;;;;;1.35;1.00;;;11.20;99.90;;;;;;4265616;27;20491;-58
2024/02/26 09:51:32;;;;;;;0.85;0.63;;;11.30;99.90;;;;;;4264656;27;20043;-57
2024/02/26 09:53:39;;;;;;;1.88;0.57;;;11.30;99.90;;;;;;4264915;27;20049;-59
2024/02/26 09:55:41;;;;;;;2.00;1.27;;;11.30;99.90;;;;;;4264774;27;20054;-57
2024/02/26 09:57:46;;;;;;;3.22;0.85;;;11.30;99.90;;;;;;4264693;27;20043;-57
2024/02/26 09:59:51;;;;;;;0.68;0.50;;;11.30;99.90;;;;;;4264764;27;20054;-57
2024/02/26 10:01:53;;;;;;;;;;;11.30;99.90;;;;;;4265177;27;20043;-57
2024/02/26 10:03:56;;;;;;;4.07;1.38;;;11.40;99.90;;;;;;4264886;27;20364;-57
2024/02/26 10:05:59;;;;;;;1.25;0.35;;;11.30;99.90;;;;;;4264352;27;20045;-58
2024/02/26 10:08:01;;;;;;;3.80;1.45;;;11.40;99.90;;;;;;4264948;27;20130;-57
2024/02/26 10:10:04;;;;;;;1.40;0.55;;;11.50;99.90;;;;;;4264840;27;20073;-58
2024/02/26 10:12:09;;;;;;;1.00;0.40;;;11.40;99.90;;;;;;4266015;27;20061;-57
2024/02/26 10:14:12;;;;;;;0.98;0.65;;;11.50;99.90;;;;;;4268479;27;20039;-57
2024/02/26 10:16:16;;;;;;;1.77;0.63;;;11.50;99.90;;;;;;4268233;27;20099;-58
2024/02/26 10:18:19;;;;;;;1.80;0.70;;;11.50;99.90;;;;;;4249695;27;20047;-56
2024/02/26 10:20:23;;;;;;;2.00;1.40;;;11.60;99.90;;;;;;4268443;27;20122;-57
2024/02/26 10:22:27;;;;;;;0.40;0.30;;;11.60;99.90;;;;;;4268620;27;20047;-56
2024/02/26 10:24:34;;;;;;;0.98;0.80;;;11.60;99.90;;;;;;4268344;27;20042;-59
2024/02/26 10:26:37;;;;;;;1.55;0.50;;;11.50;99.90;;;;;;4268077;27;20049;-57
2024/02/26 10:28:40;;;;;;;0.22;0.20;;;11.60;99.90;;;;;;4267988;27;20053;-56
2024/02/26 10:30:42;;;;;;;0.90;0.80;;;11.70;99.90;;;;;;4249663;27;20039;-57
2024/02/26 10:32:46;;;;;;;0.77;0.50;;;11.70;99.90;;;;;;4268180;27;20042;-58
2024/02/26 10:34:55;;;;;;;0.43;0.20;;;11.80;99.90;;;;;;4267734;27;20122;-57
2024/02/26 10:37:00;;;;;;;0.40;0.30;;;11.90;99.90;;;;;;4267739;27;20125;-59
2024/02/26 10:39:03;;;;;;;;;;;11.90;99.90;;;;;;4250115;27;20078;-58
2024/02/26 10:41:06;;;;;;;0.98;0.50;;;12.00;99.90;;;;;;4268141;27;19919;-60